sensor_id;sensor_type;location;lat;lon;timestamp;pressure;altitude;pressure_sealevel;temperature;humidity
64739;BME280;51175;51.186;0.276;2023-02-26T00:00:22;101766.31;;;10.69;66.01
64739;BME280;51175;51.186;0.276;2023-02-26T00:00:53;101770.56;;;10.70;65.78
64739;BME280;51175;51.186;0.276;2023-02-26T00:01:26;101763.66;;;10.69;65.84
64739;BME280;51175;51.186;0.276;2023-02-26T00:01:57;101765.53;;;10.68;65.83
64739;BME280;51175;51.186;0.276;2023-02-26T00:02:31;101763.88;;;10.67;65.85
64739;BME280;51175;51.186;0.276;2023-02-26T00:03:01;101765.53;;;10.68;65.58
64739;BME280;51175;51.186;0.276;2023-02-26T00:03:32;101764.72;;;10.68;65.93
64739;BME280;51175;51.186;0.276;2023-02-26T00:04:04;101765.53;;;10.68;65.97
64739;BME280;51175;51.186;0.276;2023-02-26T00:04:35;101763.88;;;10.67;65.98
64739;BME280;51175;51.186;0.276;2023-02-26T00:05:06;101766.53;;;10.67;65.82
64739;BME280;51175;51.186;0.276;2023-02-26T00:05:37;101766.53;;;10.67;65.74
64739;BME280;51175;51.186;0.276;2023-02-26T00:06:07;101771.03;;;10.67;65.97
64739;BME280;51175;51.186;0.276;2023-02-26T00:06:39;101773.66;;;10.67;65.83
64739;BME280;51175;51.186;0.276;2023-02-26T00:07:21;101774.69;;;10.66;65.68
64739;BME280;51175;51.186;0.276;2023-02-26T00:07:51;101766.75;;;10.66;65.96
64739;BME280;51175;51.186;0.276;2023-02-26T00:08:22;101773.09;;;10.65;65.91
64739;BME280;51175;51.186;0.276;2023-02-26T00:08:53;101769.41;;;10.66;65.82
64739;BME280;51175;51.186;0.276;2023-02-26T00:09:23;101768.59;;;10.65;65.95
64739;BME280;51175;51.186;0.276;2023-02-26T00:09:54;101769.41;;;10.66;65.80
64739;BME280;51175;51.186;0.276;2023-02-26T00:10:24;101773.88;;;10.65;65.87
64739;BME280;51175;51.186;0.276;2023-02-26T00:10:55;101773.88;;;10.65;65.77
64739;BME280;51175;51.186;0.276;2023-02-26T00:11:26;101775.72;;;10.65;65.87
64739;BME280;51175;51.186;0.276;2023-02-26T00:11:58;101772.28;;;10.64;65.74
64739;BME280;51175;51.186;0.276;2023-02-26T00:12:29;101772.28;;;10.64;65.93
64739;BME280;51175;51.186;0.276;2023-02-26T00:13:00;101772.28;;;10.64;65.78
64739;BME280;51175;51.186;0.276;2023-02-26T00:13:30;101770.66;;;10.63;65.83
64739;BME280;51175;51.186;0.276;2023-02-26T00:14:01;101768.81;;;10.64;65.66
64739;BME280;51175;51.186;0.276;2023-02-26T00:14:32;101768.59;;;10.65;65.79
64739;BME280;51175;51.186;0.276;2023-02-26T00:15:04;101774.09;;;10.64;65.85
64739;BME280;51175;51.186;0.276;2023-02-26T00:15:35;101768.81;;;10.64;65.83
64739;BME280;51175;51.186;0.276;2023-02-26T00:16:14;101768.81;;;10.64;65.82
64739;BME280;51175;51.186;0.276;2023-02-26T00:16:50;101772.28;;;10.64;65.74
64739;BME280;51175;51.186;0.276;2023-02-26T00:18:08;101761.13;;;10.62;66.13
64739;BME280;51175;51.186;0.276;2023-02-26T00:18:41;101770.91;;;10.62;65.69
64739;BME280;51175;51.186;0.276;2023-02-26T00:19:12;101766.63;;;10.61;65.87
64739;BME280;51175;51.186;0.276;2023-02-26T00:19:43;101761.34;;;10.61;65.81
64739;BME280;51175;51.186;0.276;2023-02-26T00:20:14;101757.09;;;10.60;65.85
64739;BME280;51175;51.186;0.276;2023-02-26T00:20:46;101759.75;;;10.60;65.86
64739;BME280;51175;51.186;0.276;2023-02-26T00:21:18;101764.22;;;10.59;65.83
64739;BME280;51175;51.186;0.276;2023-02-26T00:21:49;101768.72;;;10.59;65.78
64739;BME280;51175;51.186;0.276;2023-02-26T00:22:20;101758.94;;;10.59;66.09
64739;BME280;51175;51.186;0.276;2023-02-26T00:22:50;101765.03;;;10.60;65.94
64739;BME280;51175;51.186;0.276;2023-02-26T00:23:21;101764.22;;;10.59;65.74
64739;BME280;51175;51.186;0.276;2023-02-26T00:23:53;101763.22;;;10.60;65.96
64739;BME280;51175;51.186;0.276;2023-02-26T00:24:23;101765.03;;;10.60;66.19
64739;BME280;51175;51.186;0.276;2023-02-26T00:24:54;101768.72;;;10.59;65.84
64739;BME280;51175;51.186;0.276;2023-02-26T00:25:24;101762.63;;;10.58;65.85
64739;BME280;51175;51.186;0.276;2023-02-26T00:25:56;101766.06;;;10.59;65.96
64739;BME280;51175;51.186;0.276;2023-02-26T00:26:28;101754.69;;;10.58;65.90
64739;BME280;51175;51.186;0.276;2023-02-26T00:26:59;101766.06;;;10.59;65.86
64739;BME280;51175;51.186;0.276;2023-02-26T00:27:29;101767.91;;;10.58;65.89
64739;BME280;51175;51.186;0.276;2023-02-26T00:28:00;101762.84;;;10.57;65.78
64739;BME280;51175;51.186;0.276;2023-02-26T00:28:31;101759.16;;;10.58;65.88
64739;BME280;51175;51.186;0.276;2023-02-26T00:29:02;101762.63;;;10.58;65.80
64739;BME280;51175;51.186;0.276;2023-02-26T00:29:33;101761.81;;;10.58;65.81
64739;BME280;51175;51.186;0.276;2023-02-26T00:30:05;101764.44;;;10.58;65.83
64739;BME280;51175;51.186;0.276;2023-02-26T00:30:37;101759.16;;;10.58;65.86
64739;BME280;51175;51.186;0.276;2023-02-26T00:31:08;101768.94;;;10.57;65.84
64739;BME280;51175;51.186;0.276;2023-02-26T00:31:39;101763.88;;;10.55;65.65
64739;BME280;51175;51.186;0.276;2023-02-26T00:32:10;101762.03;;;10.56;65.89
64739;BME280;51175;51.186;0.276;2023-02-26T00:32:40;101764.69;;;10.56;65.91
64739;BME280;51175;51.186;0.276;2023-02-26T00:33:11;101766.53;;;10.55;66.02
64739;BME280;51175;51.186;0.276;2023-02-26T00:33:42;101765.72;;;10.55;65.98
64739;BME280;51175;51.186;0.276;2023-02-26T00:34:13;101761.25;;;10.55;65.75
64739;BME280;51175;51.186;0.276;2023-02-26T00:34:45;101761.25;;;10.55;65.87
64739;BME280;51175;51.186;0.276;2023-02-26T00:35:17;101760.44;;;10.55;65.79
64739;BME280;51175;51.186;0.276;2023-02-26T00:35:48;101764.69;;;10.56;65.69
64739;BME280;51175;51.186;0.276;2023-02-26T00:36:32;101765.72;;;10.55;65.87
64739;BME280;51175;51.186;0.276;2023-02-26T00:38:04;101765.72;;;10.55;65.69
64739;BME280;51175;51.186;0.276;2023-02-26T00:38:35;101763.31;;;10.53;65.73
64739;BME280;51175;51.186;0.276;2023-02-26T00:39:27;101770.41;;;10.53;65.97
64739;BME280;51175;51.186;0.276;2023-02-26T00:40:12;101762.50;;;10.53;65.68
64739;BME280;51175;51.186;0.276;2023-02-26T00:40:45;101761.69;;;10.52;65.81
64739;BME280;51175;51.186;0.276;2023-02-26T00:41:16;101760.06;;;10.51;65.88
64739;BME280;51175;51.186;0.276;2023-02-26T00:41:46;101766.97;;;10.52;66.05
64739;BME280;51175;51.186;0.276;2023-02-26T00:42:17;101760.88;;;10.52;65.93
64739;BME280;51175;51.186;0.276;2023-02-26T00:42:48;101765.34;;;10.51;65.96
64739;BME280;51175;51.186;0.276;2023-02-26T00:43:21;101767.22;;;10.51;65.75
64739;BME280;51175;51.186;0.276;2023-02-26T00:43:52;101775.91;;;10.51;65.87
64739;BME280;51175;51.186;0.276;2023-02-26T00:44:22;101762.72;;;10.51;65.97
64739;BME280;51175;51.186;0.276;2023-02-26T00:44:53;101765.59;;;10.50;65.81
64739;BME280;51175;51.186;0.276;2023-02-26T00:45:24;101768.00;;;10.51;65.90
64739;BME280;51175;51.186;0.276;2023-02-26T00:46:48;101769.03;;;10.50;65.91
64739;BME280;51175;51.186;0.276;2023-02-26T00:48:59;101763.16;;;10.48;65.85
64739;BME280;51175;51.186;0.276;2023-02-26T00:50:46;101774.78;;;10.47;65.95
64739;BME280;51175;51.186;0.276;2023-02-26T00:51:33;101782.91;;;10.46;65.93
64739;BME280;51175;51.186;0.276;2023-02-26T00:52:14;101774.97;;;10.46;65.82
64739;BME280;51175;51.186;0.276;2023-02-26T00:53:30;101777.84;;;10.44;65.96
64739;BME280;51175;51.186;0.276;2023-02-26T00:54:03;101781.31;;;10.45;65.97
64739;BME280;51175;51.186;0.276;2023-02-26T00:54:37;101775.19;;;10.44;65.91
64739;BME280;51175;51.186;0.276;2023-02-26T00:55:08;101778.06;;;10.42;65.89
64739;BME280;51175;51.186;0.276;2023-02-26T00:55:38;101776.25;;;10.43;66.04
64739;BME280;51175;51.186;0.276;2023-02-26T00:56:08;101770.16;;;10.42;66.03
64739;BME280;51175;51.186;0.276;2023-02-26T00:56:39;101778.06;;;10.42;65.87
64739;BME280;51175;51.186;0.276;2023-02-26T00:57:09;101775.44;;;10.42;65.91
64739;BME280;51175;51.186;0.276;2023-02-26T00:57:39;101774.63;;;10.42;65.79
64739;BME280;51175;51.186;0.276;2023-02-26T00:58:10;101774.63;;;10.42;65.72
64739;BME280;51175;51.186;0.276;2023-02-26T00:58:40;101769.34;;;10.42;65.96
64739;BME280;51175;51.186;0.276;2023-02-26T00:59:11;101764.88;;;10.42;65.99
64739;BME280;51175;51.186;0.276;2023-02-26T00:59:42;101768.53;;;10.41;65.92
64739;BME280;51175;51.186;0.276;2023-02-26T01:00:12;101772.19;;;10.40;65.80
64739;BME280;51175;51.186;0.276;2023-02-26T01:00:43;101771.19;;;10.41;65.90
64739;BME280;51175;51.186;0.276;2023-02-26T01:01:13;101775.66;;;10.41;65.88
64739;BME280;51175;51.186;0.276;2023-02-26T01:01:44;101771.19;;;10.41;65.98
64739;BME280;51175;51.186;0.276;2023-02-26T01:02:15;101775.66;;;10.41;65.92
64739;BME280;51175;51.186;0.276;2023-02-26T01:02:45;101772.19;;;10.40;65.80
64739;BME280;51175;51.186;0.276;2023-02-26T01:03:16;101770.38;;;10.41;65.89
64739;BME280;51175;51.186;0.276;2023-02-26T01:03:47;101772.19;;;10.40;65.75
64739;BME280;51175;51.186;0.276;2023-02-26T01:04:20;101775.66;;;10.41;65.77
64739;BME280;51175;51.186;0.276;2023-02-26T01:04:51;101773.00;;;10.41;65.80
64739;BME280;51175;51.186;0.276;2023-02-26T01:05:22;101780.13;;;10.40;65.93
64739;BME280;51175;51.186;0.276;2023-02-26T01:05:52;101769.56;;;10.40;65.84
64739;BME280;51175;51.186;0.276;2023-02-26T01:06:27;101776.69;;;10.40;65.80
64739;BME280;51175;51.186;0.276;2023-02-26T01:06:58;101775.06;;;10.39;65.80
64739;BME280;51175;51.186;0.276;2023-02-26T01:07:31;101776.69;;;10.40;65.90
64739;BME280;51175;51.186;0.276;2023-02-26T01:08:04;101775.88;;;10.39;65.70
64739;BME280;51175;51.186;0.276;2023-02-26T01:08:46;101769.78;;;10.39;65.81
64739;BME280;51175;51.186;0.276;2023-02-26T01:09:57;101775.28;;;10.37;65.96
64739;BME280;51175;51.186;0.276;2023-02-26T01:10:28;101775.28;;;10.37;65.83
64739;BME280;51175;51.186;0.276;2023-02-26T01:10:59;101779.78;;;10.37;65.94
64739;BME280;51175;51.186;0.276;2023-02-26T01:11:30;101777.94;;;10.37;65.77
64739;BME280;51175;51.186;0.276;2023-02-26T01:12:05;101772.66;;;10.37;65.81
64739;BME280;51175;51.186;0.276;2023-02-26T01:12:36;101777.16;;;10.37;65.88
64739;BME280;51175;51.186;0.276;2023-02-26T01:13:07;101772.66;;;10.37;65.83
64739;BME280;51175;51.186;0.276;2023-02-26T01:13:37;101777.94;;;10.37;65.81
64739;BME280;51175;51.186;0.276;2023-02-26T01:14:08;101775.28;;;10.37;65.79
64739;BME280;51175;51.186;0.276;2023-02-26T01:14:39;101777.94;;;10.37;65.75
64739;BME280;51175;51.186;0.276;2023-02-26T01:15:10;101779.78;;;10.37;65.88
64739;BME280;51175;51.186;0.276;2023-02-26T01:15:46;101777.94;;;10.37;65.81
64739;BME280;51175;51.186;0.276;2023-02-26T01:16:21;101781.63;;;10.36;65.55
64739;BME280;51175;51.186;0.276;2023-02-26T01:18:45;101789.75;;;10.35;65.81
64739;BME280;51175;51.186;0.276;2023-02-26T01:20:55;101790.81;;;10.34;65.76
64739;BME280;51175;51.186;0.276;2023-02-26T01:21:33;101787.34;;;10.33;65.80
64739;BME280;51175;51.186;0.276;2023-02-26T01:22:12;101786.53;;;10.33;65.93
64739;BME280;51175;51.186;0.276;2023-02-26T01:23:24;101787.56;;;10.31;65.79
64739;BME280;51175;51.186;0.276;2023-02-26T01:23:54;101786.75;;;10.31;65.78
64739;BME280;51175;51.186;0.276;2023-02-26T01:24:28;101782.53;;;10.30;65.86
64739;BME280;51175;51.186;0.276;2023-02-26T01:25:10;101787.81;;;10.30;65.74
64739;BME280;51175;51.186;0.276;2023-02-26T01:26:19;101786.16;;;10.29;65.79
64739;BME280;51175;51.186;0.276;2023-02-26T01:26:51;101782.75;;;10.28;65.75
64739;BME280;51175;51.186;0.276;2023-02-26T01:27:22;101781.69;;;10.29;65.71
64739;BME280;51175;51.186;0.276;2023-02-26T01:27:53;101793.31;;;10.28;65.69
64739;BME280;51175;51.186;0.276;2023-02-26T01:28:26;101795.94;;;10.28;65.89
64739;BME280;51175;51.186;0.276;2023-02-26T01:28:57;101790.88;;;10.27;65.91
64739;BME280;51175;51.186;0.276;2023-02-26T01:29:27;101794.31;;;10.27;65.95
64739;BME280;51175;51.186;0.276;2023-02-26T01:29:58;101792.72;;;10.26;65.98
64739;BME280;51175;51.186;0.276;2023-02-26T01:30:29;101794.53;;;10.26;65.81
64739;BME280;51175;51.186;0.276;2023-02-26T01:31:02;101790.31;;;10.25;65.93
64739;BME280;51175;51.186;0.276;2023-02-26T01:31:38;101791.91;;;10.26;65.82
64739;BME280;51175;51.186;0.276;2023-02-26T01:32:21;101786.84;;;10.24;65.74
64739;BME280;51175;51.186;0.276;2023-02-26T01:33:45;101790.31;;;10.25;65.90
64739;BME280;51175;51.186;0.276;2023-02-26T01:34:36;101795.59;;;10.25;65.84
64739;BME280;51175;51.186;0.276;2023-02-26T01:35:50;101792.34;;;10.23;66.03
64739;BME280;51175;51.186;0.276;2023-02-26T01:36:23;101789.72;;;10.23;65.98
64739;BME280;51175;51.186;0.276;2023-02-26T01:38:03;101798.66;;;10.22;65.90
64739;BME280;51175;51.186;0.276;2023-02-26T01:39:10;101796.03;;;10.22;66.00
64739;BME280;51175;51.186;0.276;2023-02-26T01:39:47;101797.06;;;10.21;65.98
64739;BME280;51175;51.186;0.276;2023-02-26T01:41:29;101794.66;;;10.19;65.90
64739;BME280;51175;51.186;0.276;2023-02-26T01:42:14;101797.28;;;10.19;66.10
64739;BME280;51175;51.186;0.276;2023-02-26T01:42:50;101791.19;;;10.18;65.85
64739;BME280;51175;51.186;0.276;2023-02-26T01:43:28;101796.47;;;10.18;65.89
64739;BME280;51175;51.186;0.276;2023-02-26T01:45:33;101792.25;;;10.17;65.94
64739;BME280;51175;51.186;0.276;2023-02-26T01:46:31;101791.44;;;10.17;65.94
64739;BME280;51175;51.186;0.276;2023-02-26T01:47:20;101786.38;;;10.15;65.89
64739;BME280;51175;51.186;0.276;2023-02-26T01:47:57;101793.47;;;10.15;65.97
64739;BME280;51175;51.186;0.276;2023-02-26T01:48:47;101789.22;;;10.14;65.93
64739;BME280;51175;51.186;0.276;2023-02-26T01:49:19;101791.88;;;10.14;65.95
64739;BME280;51175;51.186;0.276;2023-02-26T01:49:50;101795.56;;;10.13;66.15
64739;BME280;51175;51.186;0.276;2023-02-26T01:50:22;101791.28;;;10.12;66.15
64739;BME280;51175;51.186;0.276;2023-02-26T01:50:59;101792.09;;;10.12;66.03
64739;BME280;51175;51.186;0.276;2023-02-26T01:53:23;101789.47;;;10.12;66.15
64739;BME280;51175;51.186;0.276;2023-02-26T01:53:54;101795.78;;;10.11;66.22
64739;BME280;51175;51.186;0.276;2023-02-26T01:54:34;101792.09;;;10.12;66.13
64739;BME280;51175;51.186;0.276;2023-02-26T01:55:05;101802.66;;;10.12;66.05
64739;BME280;51175;51.186;0.276;2023-02-26T01:55:36;101799.19;;;10.12;66.19
64739;BME280;51175;51.186;0.276;2023-02-26T01:56:16;101800.03;;;10.12;66.16
64739;BME280;51175;51.186;0.276;2023-02-26T01:56:50;101796.56;;;10.12;66.12
64739;BME280;51175;51.186;0.276;2023-02-26T01:57:22;101794.97;;;10.11;66.11
64739;BME280;51175;51.186;0.276;2023-02-26T01:57:55;101803.69;;;10.11;66.12
64739;BME280;51175;51.186;0.276;2023-02-26T01:58:29;101797.59;;;10.11;66.18
64739;BME280;51175;51.186;0.276;2023-02-26T01:59:03;101798.41;;;10.11;66.12
64739;BME280;51175;51.186;0.276;2023-02-26T01:59:41;101803.69;;;10.11;65.84
64739;BME280;51175;51.186;0.276;2023-02-26T02:00:14;101805.53;;;10.11;65.92
64739;BME280;51175;51.186;0.276;2023-02-26T02:00:45;101801.28;;;10.10;66.00
64739;BME280;51175;51.186;0.276;2023-02-26T02:01:15;101806.34;;;10.11;66.05
64739;BME280;51175;51.186;0.276;2023-02-26T02:01:46;101802.88;;;10.11;66.02
64739;BME280;51175;51.186;0.276;2023-02-26T02:02:19;101804.72;;;10.10;65.99
64739;BME280;51175;51.186;0.276;2023-02-26T02:02:50;101807.34;;;10.10;65.98
64739;BME280;51175;51.186;0.276;2023-02-26T02:03:23;101808.16;;;10.11;66.09
64739;BME280;51175;51.186;0.276;2023-02-26T02:03:55;101811.84;;;10.10;66.10
64739;BME280;51175;51.186;0.276;2023-02-26T02:04:25;101808.16;;;10.11;65.98
64739;BME280;51175;51.186;0.276;2023-02-26T02:05:01;101803.91;;;10.10;66.10
64739;BME280;51175;51.186;0.276;2023-02-26T02:06:07;101814.47;;;10.10;65.88
64739;BME280;51175;51.186;0.276;2023-02-26T02:06:38;101814.47;;;10.10;65.99
64739;BME280;51175;51.186;0.276;2023-02-26T02:07:08;101817.13;;;10.10;66.00
64739;BME280;51175;51.186;0.276;2023-02-26T02:07:39;101807.34;;;10.10;66.04
64739;BME280;51175;51.186;0.276;2023-02-26T02:08:11;101814.47;;;10.10;66.03
64739;BME280;51175;51.186;0.276;2023-02-26T02:08:42;101816.09;;;10.11;66.07
64739;BME280;51175;51.186;0.276;2023-02-26T02:09:12;101816.31;;;10.09;66.00
64739;BME280;51175;51.186;0.276;2023-02-26T02:09:43;101811.63;;;10.11;65.96
64739;BME280;51175;51.186;0.276;2023-02-26T02:10:13;101813.44;;;10.11;65.96
64739;BME280;51175;51.186;0.276;2023-02-26T02:10:45;101808.16;;;10.11;65.88
64739;BME280;51175;51.186;0.276;2023-02-26T02:11:17;101810.00;;;10.10;65.88
64739;BME280;51175;51.186;0.276;2023-02-26T02:12:15;101807.34;;;10.10;65.81
64739;BME280;51175;51.186;0.276;2023-02-26T02:12:59;101810.22;;;10.09;65.83
64739;BME280;51175;51.186;0.276;2023-02-26T02:14:26;101812.06;;;10.08;65.74
64739;BME280;51175;51.186;0.276;2023-02-26T02:15:20;101808.59;;;10.08;65.83
64739;BME280;51175;51.186;0.276;2023-02-26T02:16:58;101807.78;;;10.07;65.75
64739;BME280;51175;51.186;0.276;2023-02-26T02:17:17;101809.88;;;10.05;65.87
64739;BME280;51175;51.186;0.276;2023-02-26T02:18:40;101810.88;;;10.04;65.78
64739;BME280;51175;51.186;0.276;2023-02-26T02:21:33;101811.91;;;10.03;65.91
64739;BME280;51175;51.186;0.276;2023-02-26T02:22:31;101810.31;;;10.02;65.82
64739;BME280;51175;51.186;0.276;2023-02-26T02:23:21;101813.97;;;10.01;65.88
64739;BME280;51175;51.186;0.276;2023-02-26T02:24:04;101815.81;;;10.00;66.11
64739;BME280;51175;51.186;0.276;2023-02-26T02:27:34;101811.78;;;9.98;66.15
64739;BME280;51175;51.186;0.276;2023-02-26T02:28:37;101812.81;;;9.97;66.14
64739;BME280;51175;51.186;0.276;2023-02-26T02:30:48;101806.94;;;9.94;65.98
64739;BME280;51175;51.186;0.276;2023-02-26T02:31:52;101806.34;;;9.92;65.92
64739;BME280;51175;51.186;0.276;2023-02-26T02:32:29;101809.22;;;9.91;66.12
64739;BME280;51175;51.186;0.276;2023-02-26T02:33:12;101804.16;;;9.89;65.90
64739;BME280;51175;51.186;0.276;2023-02-26T02:33:50;101803.94;;;9.91;66.03
64739;BME280;51175;51.186;0.276;2023-02-26T02:34:44;101804.16;;;9.89;66.27
64739;BME280;51175;51.186;0.276;2023-02-26T02:35:41;101806.00;;;9.89;66.10
64739;BME280;51175;51.186;0.276;2023-02-26T02:37:24;101799.91;;;9.88;66.22
64739;BME280;51175;51.186;0.276;2023-02-26T02:38:07;101808.88;;;9.87;66.25
64739;BME280;51175;51.186;0.276;2023-02-26T02:38:48;101807.22;;;9.86;66.12
64739;BME280;51175;51.186;0.276;2023-02-26T02:39:43;101805.41;;;9.87;66.11
64739;BME280;51175;51.186;0.276;2023-02-26T02:40:22;101813.34;;;9.87;66.09
64739;BME280;51175;51.186;0.276;2023-02-26T02:41:01;101810.69;;;9.87;66.29
64739;BME280;51175;51.186;0.276;2023-02-26T02:41:37;101808.06;;;9.87;66.31
64739;BME280;51175;51.186;0.276;2023-02-26T02:42:51;101808.88;;;9.87;66.11
64739;BME280;51175;51.186;0.276;2023-02-26T02:43:27;101812.50;;;9.86;66.17
64739;BME280;51175;51.186;0.276;2023-02-26T02:44:01;101818.59;;;9.87;66.23
64739;BME280;51175;51.186;0.276;2023-02-26T02:44:38;101815.97;;;9.87;66.18
64739;BME280;51175;51.186;0.276;2023-02-26T02:45:16;101821.25;;;9.87;66.14
64739;BME280;51175;51.186;0.276;2023-02-26T02:45:51;101816.78;;;9.87;66.07
64739;BME280;51175;51.186;0.276;2023-02-26T02:46:27;101810.69;;;9.87;66.24
64739;BME280;51175;51.186;0.276;2023-02-26T02:46:59;101814.16;;;9.87;66.31
64739;BME280;51175;51.186;0.276;2023-02-26T02:47:34;101813.34;;;9.87;66.10
64739;BME280;51175;51.186;0.276;2023-02-26T02:48:20;101816.78;;;9.87;66.13
64739;BME280;51175;51.186;0.276;2023-02-26T02:49:03;101814.16;;;9.87;66.08
64739;BME280;51175;51.186;0.276;2023-02-26T02:49:40;101809.66;;;9.88;66.06
64739;BME280;51175;51.186;0.276;2023-02-26T02:50:19;101808.88;;;9.87;66.13
64739;BME280;51175;51.186;0.276;2023-02-26T02:51:57;101814.94;;;9.88;66.03
64739;BME280;51175;51.186;0.276;2023-02-26T02:53:22;101811.50;;;9.87;65.95
64739;BME280;51175;51.186;0.276;2023-02-26T02:54:03;101814.16;;;9.87;66.01
64739;BME280;51175;51.186;0.276;2023-02-26T02:54:59;101820.44;;;9.86;66.08
64739;BME280;51175;51.186;0.276;2023-02-26T02:55:36;101818.81;;;9.85;66.00
64739;BME280;51175;51.186;0.276;2023-02-26T02:56:22;101818.81;;;9.85;65.77
64739;BME280;51175;51.186;0.276;2023-02-26T02:57:03;101822.50;;;9.84;65.89
64739;BME280;51175;51.186;0.276;2023-02-26T02:57:44;101820.66;;;9.85;66.12
64739;BME280;51175;51.186;0.276;2023-02-26T02:58:22;101823.28;;;9.85;66.06
64739;BME280;51175;51.186;0.276;2023-02-26T02:59:05;101824.91;;;9.86;66.03
64739;BME280;51175;51.186;0.276;2023-02-26T02:59:48;101824.09;;;9.85;65.90
64739;BME280;51175;51.186;0.276;2023-02-26T03:00:22;101817.22;;;9.84;66.11
64739;BME280;51175;51.186;0.276;2023-02-26T03:00:57;101816.19;;;9.85;66.04
64739;BME280;51175;51.186;0.276;2023-02-26T03:01:31;101826.75;;;9.85;65.90
64739;BME280;51175;51.186;0.276;2023-02-26T03:02:11;101819.66;;;9.86;65.87
64739;BME280;51175;51.186;0.276;2023-02-26T03:03:09;101826.75;;;9.85;65.99
64739;BME280;51175;51.186;0.276;2023-02-26T03:03:54;101823.28;;;9.85;65.99
64739;BME280;51175;51.186;0.276;2023-02-26T03:04:25;101825.16;;;9.84;65.76
64739;BME280;51175;51.186;0.276;2023-02-26T03:04:55;101816.41;;;9.84;65.99
64739;BME280;51175;51.186;0.276;2023-02-26T03:05:26;101821.69;;;9.84;65.98
64739;BME280;51175;51.186;0.276;2023-02-26T03:05:56;101820.88;;;9.83;65.92
64739;BME280;51175;51.186;0.276;2023-02-26T03:06:27;101819.06;;;9.84;65.89
64739;BME280;51175;51.186;0.276;2023-02-26T03:06:57;101821.69;;;9.84;65.84
64739;BME280;51175;51.186;0.276;2023-02-26T03:07:30;101822.50;;;9.84;65.87
64739;BME280;51175;51.186;0.276;2023-02-26T03:08:07;101830.41;;;9.84;66.02
64739;BME280;51175;51.186;0.276;2023-02-26T03:08:40;101834.06;;;9.83;65.90
64739;BME280;51175;51.186;0.276;2023-02-26T03:09:11;101832.25;;;9.84;65.90
64739;BME280;51175;51.186;0.276;2023-02-26T03:09:41;101830.63;;;9.83;65.98
64739;BME280;51175;51.186;0.276;2023-02-26T03:10:12;101841.97;;;9.83;65.99
64739;BME280;51175;51.186;0.276;2023-02-26T03:10:43;101826.16;;;9.83;65.92
64739;BME280;51175;51.186;0.276;2023-02-26T03:11:14;101828.78;;;9.83;66.02
64739;BME280;51175;51.186;0.276;2023-02-26T03:11:44;101826.97;;;9.84;65.96
64739;BME280;51175;51.186;0.276;2023-02-26T03:12:15;101832.25;;;9.84;65.95
64739;BME280;51175;51.186;0.276;2023-02-26T03:12:45;101836.72;;;9.83;65.87
64739;BME280;51175;51.186;0.276;2023-02-26T03:13:21;101830.41;;;9.84;65.98
64739;BME280;51175;51.186;0.276;2023-02-26T03:13:52;101840.97;;;9.84;65.96
64739;BME280;51175;51.186;0.276;2023-02-26T03:14:23;101823.50;;;9.83;66.00
64739;BME280;51175;51.186;0.276;2023-02-26T03:14:54;101834.06;;;9.83;65.80
64739;BME280;51175;51.186;0.276;2023-02-26T03:16:43;101837.53;;;9.84;65.65
64739;BME280;51175;51.186;0.276;2023-02-26T03:17:26;101843.03;;;9.82;65.81
64739;BME280;51175;51.186;0.276;2023-02-26T03:19:47;101835.31;;;9.80;65.87
64739;BME280;51175;51.186;0.276;2023-02-26T03:20:33;101836.38;;;9.79;65.79
64739;BME280;51175;51.186;0.276;2023-02-26T03:21:16;101838.19;;;9.79;65.87
64739;BME280;51175;51.186;0.276;2023-02-26T03:22:26;101838.19;;;9.79;65.83
64739;BME280;51175;51.186;0.276;2023-02-26T03:23:23;101832.91;;;9.79;65.76
64739;BME280;51175;51.186;0.276;2023-02-26T03:24:48;101843.69;;;9.77;65.85
64739;BME280;51175;51.186;0.276;2023-02-26T03:25:02;101839.44;;;9.76;65.67
64739;BME280;51175;51.186;0.276;2023-02-26T03:26:43;101842.06;;;9.76;65.78
64739;BME280;51175;51.186;0.276;2023-02-26T03:27:51;101837.81;;;9.75;65.71
64739;BME280;51175;51.186;0.276;2023-02-26T03:28:17;101836.22;;;9.74;65.72
64739;BME280;51175;51.186;0.276;2023-02-26T03:29:19;101838.84;;;9.74;65.86
64739;BME280;51175;51.186;0.276;2023-02-26T03:29:54;101842.31;;;9.75;65.86
64739;BME280;51175;51.186;0.276;2023-02-26T03:30:38;101844.13;;;9.74;65.78
64739;BME280;51175;51.186;0.276;2023-02-26T03:31:25;101845.72;;;9.75;65.80
64739;BME280;51175;51.186;0.276;2023-02-26T03:32:01;101844.13;;;9.74;65.92
64739;BME280;51175;51.186;0.276;2023-02-26T03:33:03;101841.69;;;9.73;65.69
64739;BME280;51175;51.186;0.276;2023-02-26T03:34:16;101842.53;;;9.73;65.81
64739;BME280;51175;51.186;0.276;2023-02-26T03:34:52;101840.09;;;9.72;65.91
64739;BME280;51175;51.186;0.276;2023-02-26T03:36:12;101841.94;;;9.71;65.89
64739;BME280;51175;51.186;0.276;2023-02-26T03:36:54;101838.47;;;9.71;65.89
64739;BME280;51175;51.186;0.276;2023-02-26T03:37:32;101839.28;;;9.71;65.82
64739;BME280;51175;51.186;0.276;2023-02-26T03:38:08;101837.69;;;9.70;65.94
64739;BME280;51175;51.186;0.276;2023-02-26T03:38:48;101839.50;;;9.69;65.94
64739;BME280;51175;51.186;0.276;2023-02-26T03:39:33;101843.19;;;9.68;65.92
64739;BME280;51175;51.186;0.276;2023-02-26T03:40:14;101843.19;;;9.68;65.83
64739;BME280;51175;51.186;0.276;2023-02-26T03:40:49;101843.19;;;9.68;66.09
64739;BME280;51175;51.186;0.276;2023-02-26T03:41:43;101851.88;;;9.69;65.86
64739;BME280;51175;51.186;0.276;2023-02-26T03:42:27;101846.59;;;9.69;65.95
64739;BME280;51175;51.186;0.276;2023-02-26T03:43:19;101857.38;;;9.67;66.07
64739;BME280;51175;51.186;0.276;2023-02-26T03:44:21;101855.56;;;9.68;66.00
64739;BME280;51175;51.186;0.276;2023-02-26T03:45:05;101849.47;;;9.67;65.96
64739;BME280;51175;51.186;0.276;2023-02-26T03:45:37;101855.78;;;9.66;66.11